createdAt,value
2022-08-07T00:01:12.609Z,54.63
2022-08-07T00:03:50.711Z,55.38
2022-08-07T00:06:17.479Z,55.55
2022-08-07T00:08:46.935Z,55.02
2022-08-07T00:11:13.619Z,55.70
2022-08-07T00:13:47.821Z,55.68
2022-08-07T00:16:17.565Z,55.71
2022-08-07T00:18:48.349Z,56.79
2022-08-07T00:21:56.246Z,57.60
2022-08-07T00:24:01.611Z,57.71
2022-08-07T00:26:59.309Z,58.19
2022-08-07T00:29:15.247Z,57.70
2022-08-07T00:31:42.354Z,58.81
2022-08-07T00:34:09.535Z,58.97
2022-08-07T00:36:38.550Z,59.17
2022-08-07T00:39:09.235Z,59.22
2022-08-07T00:41:53.809Z,60.20
2022-08-07T00:44:28.101Z,59.78
2022-08-07T00:46:55.352Z,60.58
2022-08-07T00:50:16.850Z,61.23
2022-08-07T00:52:09.909Z,61.71
2022-08-07T00:54:36.434Z,62.55
2022-08-07T00:57:07.291Z,62.64
2022-08-07T00:59:37.716Z,61.96
2022-08-07T01:02:14.083Z,61.61
2022-08-07T01:04:53.753Z,60.23
2022-08-07T01:07:25.050Z,61.63
2022-08-07T01:10:06.373Z,61.53
2022-08-07T01:12:40.035Z,61.41
2022-08-07T01:15:20.412Z,61.62
2022-08-07T01:17:46.945Z,60.54
2022-08-07T01:20:17.468Z,61.15
2022-08-07T01:23:00.552Z,62.31
2022-08-07T01:25:54.727Z,60.95
2022-08-07T01:28:21.866Z,60.90
2022-08-07T01:30:51.220Z,61.94
2022-08-07T01:33:18.582Z,63.11
2022-08-07T01:35:54.307Z,62.78
2022-08-07T01:38:31.946Z,62.53
2022-08-07T01:41:00.417Z,62.66
2022-08-07T01:43:34.722Z,63.79
2022-08-07T01:46:05.596Z,64.06
2022-08-07T01:48:34.904Z,63.50
2022-08-07T01:51:24.748Z,64.11
2022-08-07T01:54:12.639Z,64.40
2022-08-07T01:57:01.023Z,64.69
2022-08-07T01:59:54.013Z,64.18
2022-08-07T02:03:12.462Z,64.50
2022-08-07T02:05:47.555Z,64.95
2022-08-07T02:08:11.053Z,65.85
2022-08-07T02:10:43.633Z,65.55
2022-08-07T02:13:17.007Z,66.45
2022-08-07T02:15:45.768Z,65.85
2022-08-07T02:18:13.823Z,66.73
2022-08-07T02:20:42.992Z,65.88
2022-08-07T02:23:16.905Z,66.33
2022-08-07T02:26:31.379Z,67.52
2022-08-07T02:28:40.971Z,67.09
2022-08-07T02:31:18.875Z,67.50
2022-08-07T02:34:11.180Z,67.86
2022-08-07T02:36:41.295Z,68.53
2022-08-07T02:39:17.361Z,68.58
2022-08-07T02:41:57.441Z,68.97
2022-08-07T02:44:27.555Z,68.79
2022-08-07T02:47:01.595Z,69.25
2022-08-07T02:49:59.060Z,69.69
2022-08-07T02:52:21.508Z,70.50
2022-08-07T02:55:04.909Z,69.71
2022-08-07T02:57:53.701Z,70.31
2022-08-07T03:00:21.061Z,70.53
2022-08-07T03:02:55.001Z,70.88
2022-08-07T03:05:24.592Z,70.66
2022-08-07T03:08:08.052Z,71.27
2022-08-07T03:10:41.083Z,71.19
2022-08-07T03:13:19.282Z,70.98
2022-08-07T03:15:56.147Z,71.46
2022-08-07T03:18:34.487Z,71.95
2022-08-07T03:21:04.911Z,71.79
2022-08-07T03:24:19.469Z,72.79
2022-08-07T03:26:27.337Z,72.24
2022-08-07T03:28:58.503Z,72.30
2022-08-07T03:31:43.524Z,72.13
2022-08-07T03:34:18.566Z,72.05
2022-08-07T03:36:53.040Z,71.88
2022-08-07T03:39:59.402Z,71.06
2022-08-07T03:42:09.252Z,74.58
2022-08-07T03:44:37.632Z,73.29
2022-08-07T03:47:13.751Z,73.58
2022-08-07T03:49:48.062Z,74.22
2022-08-07T03:52:26.807Z,73.44
2022-08-07T03:55:06.251Z,73.73
2022-08-07T03:58:33.101Z,73.35
2022-08-07T04:00:29.201Z,73.71
2022-08-07T04:02:58.644Z,74.79
2022-08-07T04:05:39.439Z,73.54
2022-08-07T04:08:11.601Z,73.99
2022-08-07T04:10:39.737Z,74.44
2022-08-07T04:13:15.081Z,75.42
2022-08-07T04:15:43.167Z,75.63
2022-08-07T04:18:56.261Z,75.86
2022-08-07T04:21:00.974Z,75.54
2022-08-07T04:23:43.984Z,75.58
2022-08-07T04:26:16.917Z,75.87
2022-08-07T04:28:48.555Z,75.91
2022-08-07T04:31:20.186Z,76.44
2022-08-07T04:34:02.838Z,75.82
2022-08-07T04:36:29.317Z,75.39
2022-08-07T04:38:56.400Z,76.53
2022-08-07T04:41:24.740Z,74.77
2022-08-07T04:44:13.232Z,75.73
2022-08-07T04:47:04.515Z,77.60
2022-08-07T04:49:57.950Z,75.47
2022-08-07T04:52:51.100Z,75.68
2022-08-07T04:58:12.969Z,71.26
2022-08-07T05:02:00.197Z,62.05
2022-08-07T05:04:32.855Z,60.45
2022-08-07T05:07:20.952Z,57.97
2022-08-07T05:09:59.387Z,57.51
2022-08-07T05:12:34.917Z,56.29
2022-08-07T05:15:23.600Z,55.09
2022-08-07T05:17:56.499Z,55.59
2022-08-07T05:20:31.563Z,54.50
2022-08-07T05:23:03.860Z,53.79
2022-08-07T05:25:54.631Z,53.89
2022-08-07T05:28:23.321Z,53.48
2022-08-07T05:30:55.429Z,53.21
2022-08-07T05:33:23.641Z,51.82
2022-08-07T05:35:52.958Z,52.55
2022-08-07T05:39:00.495Z,51.43
2022-08-07T05:41:14.328Z,52.29
2022-08-07T05:44:07.686Z,52.10
2022-08-07T05:46:37.142Z,51.90
2022-08-07T05:49:11.666Z,52.08
2022-08-07T05:51:40.096Z,52.15
2022-08-07T05:54:13.381Z,51.56
2022-08-07T05:56:54.618Z,51.66
2022-08-07T05:59:22.878Z,52.58
2022-08-07T06:01:50.714Z,50.81
2022-08-07T06:04:19.787Z,51.56
2022-08-07T06:06:47.532Z,52.32
2022-08-07T06:09:16.817Z,51.05
2022-08-07T06:11:44.074Z,50.14
2022-08-07T06:14:21.279Z,51.00
2022-08-07T06:16:55.949Z,50.50
2022-08-07T06:19:52.052Z,52.13
2022-08-07T06:22:22.816Z,51.61
2022-08-07T06:24:58.123Z,49.67
2022-08-07T06:27:54.428Z,46.75
2022-08-07T06:30:32.048Z,44.83
2022-08-07T06:33:01.581Z,44.25
2022-08-07T06:35:39.054Z,44.81
2022-08-07T06:38:20.413Z,44.27
2022-08-07T06:40:53.000Z,44.31
2022-08-07T06:43:22.628Z,44.54
2022-08-07T06:45:50.621Z,43.96
2022-08-07T06:48:24.783Z,43.99
2022-08-07T06:50:54.742Z,43.99
2022-08-07T06:55:28.184Z,44.50
2022-08-07T06:56:15.506Z,44.55
2022-08-07T07:00:13.861Z,44.12
2022-08-07T07:01:44.123Z,43.69
2022-08-07T07:04:28.488Z,43.75
2022-08-07T07:07:01.904Z,43.20
2022-08-07T07:09:31.670Z,43.63
2022-08-07T07:12:19.819Z,43.31
2022-08-07T07:14:55.793Z,42.91
2022-08-07T07:17:38.673Z,43.04
2022-08-07T07:20:14.738Z,42.98
2022-08-07T07:24:10.065Z,43.01
2022-08-07T07:26:34.227Z,43.16
2022-08-07T07:28:48.592Z,43.38
2022-08-07T07:31:39.864Z,43.51
2022-08-07T07:34:10.509Z,43.60
2022-08-07T07:36:47.683Z,43.00
2022-08-07T07:39:16.404Z,43.08
2022-08-07T07:42:02.194Z,43.10
2022-08-07T07:44:39.775Z,43.13
2022-08-07T07:47:15.902Z,42.99
2022-08-07T07:50:36.253Z,42.74
2022-08-07T07:52:39.434Z,42.75
2022-08-07T07:55:07.789Z,42.94
2022-08-07T07:57:51.816Z,42.83
2022-08-07T08:00:29.127Z,42.30
2022-08-07T08:03:05.642Z,42.62
2022-08-07T08:05:51.096Z,43.41
2022-08-07T08:08:36.289Z,43.75
2022-08-07T08:11:08.018Z,43.87
2022-08-07T08:13:54.956Z,42.38
2022-08-07T08:16:29.792Z,42.64
2022-08-07T08:19:00.537Z,42.59
2022-08-07T08:22:07.816Z,43.17
2022-08-07T08:25:18.144Z,43.31
2022-08-07T08:27:57.690Z,42.71
2022-08-07T08:30:34.789Z,43.46
2022-08-07T08:33:15.186Z,43.48
2022-08-07T08:35:49.943Z,43.98
2022-08-07T08:38:29.520Z,44.58
2022-08-07T08:41:56.799Z,43.46
2022-08-07T08:44:33.166Z,43.47
2022-08-07T08:47:10.039Z,44.09
2022-08-07T08:50:02.527Z,45.42
2022-08-07T08:52:36.207Z,43.86
2022-08-07T08:55:21.006Z,42.74
2022-08-07T08:58:28.595Z,44.75
2022-08-07T09:01:15.777Z,43.83
2022-08-07T09:03:58.623Z,43.00
2022-08-07T09:06:53.593Z,43.21
2022-08-07T09:09:36.614Z,42.15
2022-08-07T09:12:30.892Z,42.81
2022-08-07T09:16:22.882Z,42.73
2022-08-07T09:18:30.700Z,43.47
2022-08-07T09:21:58.036Z,43.82
2022-08-07T09:24:30.860Z,43.78
2022-08-07T09:27:24.633Z,43.48
2022-08-07T09:30:07.949Z,43.16
2022-08-07T09:32:55.300Z,43.58
2022-08-07T09:36:04.587Z,44.52
2022-08-07T09:38:53.445Z,44.51
2022-08-07T09:42:02.936Z,44.46
2022-08-07T09:47:23.588Z,44.39
2022-08-07T09:47:59.517Z,45.05
2022-08-07T09:50:36.388Z,44.50
2022-08-07T09:53:05.768Z,44.02
2022-08-07T09:56:10.555Z,43.50
2022-08-07T09:59:14.642Z,42.90
2022-08-07T10:01:51.596Z,42.91
2022-08-07T10:04:47.622Z,42.04
2022-08-07T10:07:57.543Z,41.63
2022-08-07T10:11:16.550Z,41.46
2022-08-07T10:14:00.280Z,41.96
2022-08-07T10:16:37.383Z,42.24
2022-08-07T10:19:11.335Z,41.46
2022-08-07T10:22:12.633Z,42.24
2022-08-07T10:24:51.375Z,41.75
2022-08-07T10:27:23.742Z,40.87
2022-08-07T10:30:16.331Z,41.38
2022-08-07T10:32:52.774Z,41.20
2022-08-07T10:35:56.975Z,41.05
2022-08-07T10:39:00.505Z,40.93
2022-08-07T10:41:47.241Z,40.51
2022-08-07T10:44:28.499Z,40.43
2022-08-07T10:47:15.590Z,38.48
2022-08-07T10:50:03.626Z,38.65
2022-08-07T10:52:40.360Z,38.46
2022-08-07T10:55:21.170Z,38.88
2022-08-07T10:58:15.712Z,38.91
2022-08-07T11:00:56.509Z,37.50
2022-08-07T11:03:55.236Z,37.36
2022-08-07T11:06:47.801Z,36.28
2022-08-07T11:10:07.879Z,35.80
2022-08-07T11:12:49.179Z,36.41
2022-08-07T11:15:34.134Z,36.50
2022-08-07T11:18:32.494Z,36.62
2022-08-07T11:21:06.577Z,35.75
2022-08-07T11:23:46.337Z,36.34
2022-08-07T11:26:28.229Z,36.30
2022-08-07T11:29:05.669Z,36.13
2022-08-07T11:31:42.745Z,35.47
2022-08-07T11:34:42.442Z,35.26
2022-08-07T11:37:38.603Z,34.96
2022-08-07T11:40:27.716Z,34.30
2022-08-07T11:43:02.725Z,34.48
2022-08-07T11:45:53.589Z,33.73
2022-08-07T11:49:04.395Z,34.76
2022-08-07T11:51:46.765Z,34.16
2022-08-07T11:54:31.441Z,34.58
2022-08-07T11:57:16.716Z,35.46
2022-08-07T12:00:10.444Z,34.93
2022-08-07T12:03:41.968Z,35.10
2022-08-07T12:06:38.881Z,34.23
2022-08-07T12:09:16.391Z,34.52
2022-08-07T12:12:10.950Z,34.74
2022-08-07T12:15:03.180Z,35.15
2022-08-07T12:17:39.791Z,34.92
2022-08-07T12:20:30.486Z,33.92
2022-08-07T12:24:06.329Z,33.77
2022-08-07T12:26:41.906Z,33.89
2022-08-07T12:29:37.127Z,33.38
2022-08-07T12:32:29.874Z,32.91
2022-08-07T12:34:58.136Z,33.10
2022-08-07T12:37:28.249Z,33.67
2022-08-07T12:40:44.914Z,32.65
2022-08-07T12:43:10.144Z,33.05
2022-08-07T12:45:55.165Z,33.46
2022-08-07T12:48:57.417Z,33.94
2022-08-07T12:51:33.353Z,33.85
2022-08-07T12:54:38.226Z,33.62
2022-08-07T12:57:09.935Z,32.28
2022-08-07T12:59:54.754Z,32.47
2022-08-07T13:02:49.602Z,32.83
2022-08-07T13:06:02.872Z,32.43
2022-08-07T13:08:48.839Z,31.80
2022-08-07T13:11:26.049Z,32.46
2022-08-07T13:14:26.913Z,32.76
2022-08-07T13:17:12.325Z,32.60
2022-08-07T13:19:56.413Z,32.52
2022-08-07T13:22:52.633Z,32.21
2022-08-07T13:25:38.727Z,32.76
2022-08-07T13:28:18.746Z,32.09
2022-08-07T13:31:13.388Z,32.12
2022-08-07T13:34:31.913Z,32.25
2022-08-07T13:36:51.429Z,32.13
2022-08-07T13:40:33.211Z,31.67
2022-08-07T13:42:25.631Z,31.61
2022-08-07T13:45:20.717Z,31.74
2022-08-07T13:48:05.982Z,31.39
2022-08-07T13:50:34.994Z,31.47
2022-08-07T13:53:21.933Z,31.87
2022-08-07T13:55:54.716Z,32.15
2022-08-07T13:58:43.258Z,31.49
2022-08-07T14:01:25.954Z,31.66
2022-08-07T14:04:07.419Z,31.35
2022-08-07T14:06:38.451Z,31.26
2022-08-07T14:09:06.442Z,31.00
2022-08-07T14:11:42.387Z,31.53
2022-08-07T14:14:33.222Z,31.07
2022-08-07T14:17:13.086Z,30.82
2022-08-07T14:20:42.347Z,30.99
2022-08-07T14:22:53.086Z,31.05
2022-08-07T14:25:29.470Z,31.31
2022-08-07T14:28:31.212Z,30.86
2022-08-07T14:30:57.701Z,30.47
2022-08-07T14:33:26.346Z,31.10
2022-08-07T14:36:14.899Z,30.95
2022-08-07T14:38:50.621Z,31.30
2022-08-07T14:41:34.041Z,31.26
2022-08-07T14:44:16.239Z,31.92
2022-08-07T14:46:51.566Z,31.85
2022-08-07T14:49:57.513Z,31.37
2022-08-07T14:52:11.099Z,30.68
2022-08-07T14:54:42.181Z,30.92
2022-08-07T14:57:54.369Z,30.15
2022-08-07T15:00:20.735Z,30.37
2022-08-07T15:02:59.994Z,30.43
2022-08-07T15:05:30.377Z,30.56
2022-08-07T15:07:59.869Z,30.41
2022-08-07T15:16:14.639Z,30.22
2022-08-07T15:18:51.660Z,30.55
2022-08-07T15:21:58.411Z,31.30
2022-08-07T15:25:15.570Z,30.94
2022-08-07T15:27:06.067Z,30.82
2022-08-07T15:32:39.656Z,30.73
2022-08-07T15:36:01.691Z,30.82
2022-08-07T15:38:31.066Z,30.62
2022-08-07T15:44:09.065Z,31.11
2022-08-07T15:46:51.770Z,30.67
2022-08-07T15:49:25.620Z,30.81
2022-08-07T15:52:13.833Z,30.75
2022-08-07T15:54:44.371Z,30.43
2022-08-07T15:57:39.806Z,30.52
2022-08-07T16:00:06.456Z,30.00
2022-08-07T16:02:41.243Z,30.30
2022-08-07T16:05:15.902Z,30.03
2022-08-07T16:08:30.264Z,30.33
2022-08-07T16:10:36.569Z,30.67
2022-08-07T16:13:59.912Z,30.21
2022-08-07T16:16:47.826Z,30.51
2022-08-07T16:19:43.051Z,30.45
2022-08-07T16:22:54.940Z,30.16
2022-08-07T16:25:55.473Z,30.19
2022-08-07T16:30:07.783Z,30.01
2022-08-07T16:31:51.724Z,29.84
2022-08-07T16:34:39.468Z,30.78
2022-08-07T16:38:03.724Z,30.06
2022-08-07T16:40:35.765Z,30.60
2022-08-07T16:44:05.531Z,30.40
2022-08-07T16:47:06.701Z,30.32
2022-08-07T16:50:20.026Z,30.06
2022-08-07T16:53:20.731Z,29.87
2022-08-07T16:56:02.956Z,29.86
2022-08-07T16:59:10.525Z,30.04
2022-08-07T17:02:02.795Z,30.16
2022-08-07T17:04:57.792Z,29.99
2022-08-07T17:07:55.248Z,30.08
2022-08-07T17:10:32.738Z,29.83
2022-08-07T17:13:24.632Z,30.21
2022-08-07T17:16:16.156Z,30.18
2022-08-07T17:18:52.074Z,29.74
2022-08-07T17:21:23.666Z,29.69
2022-08-07T17:24:23.663Z,29.86
2022-08-07T17:27:19.851Z,29.69
2022-08-07T17:30:19.649Z,29.46
2022-08-07T17:32:59.259Z,29.64
2022-08-07T17:35:54.962Z,30.17
2022-08-07T17:38:50.642Z,29.91
2022-08-07T17:42:04.955Z,29.97
2022-08-07T17:44:45.565Z,29.79
2022-08-07T17:47:53.929Z,29.73
2022-08-07T17:50:30.869Z,29.95
2022-08-07T17:53:07.400Z,30.53
2022-08-07T17:56:01.026Z,30.13
2022-08-07T17:58:36.627Z,30.47
2022-08-07T18:01:20.680Z,30.14
2022-08-07T18:04:07.993Z,30.02
2022-08-07T18:07:19.263Z,30.14
2022-08-07T18:10:04.315Z,30.47
2022-08-07T18:12:41.972Z,30.50
2022-08-07T18:15:14.683Z,31.35
2022-08-07T18:18:33.105Z,31.19
2022-08-07T18:21:12.641Z,30.84
2022-08-07T18:24:07.379Z,30.90
2022-08-07T18:26:55.726Z,31.75
2022-08-07T18:30:06.950Z,31.87
2022-08-07T18:32:53.889Z,32.54
2022-08-07T18:35:51.566Z,32.40
2022-08-07T18:40:07.535Z,32.43
2022-08-07T18:42:13.786Z,33.10
2022-08-07T18:45:44.735Z,33.23
2022-08-07T18:50:05.908Z,34.16
2022-08-07T18:52:33.635Z,34.04
2022-08-07T18:54:33.047Z,34.90
2022-08-07T18:57:31.600Z,34.92
2022-08-07T19:00:32.070Z,35.57
2022-08-07T19:03:15.791Z,35.60
2022-08-07T19:06:02.064Z,35.60
2022-08-07T19:08:49.629Z,36.67
2022-08-07T19:11:36.533Z,36.12
2022-08-07T19:14:19.876Z,36.78
2022-08-07T19:17:07.005Z,37.15
2022-08-07T19:19:50.852Z,35.85
2022-08-07T19:22:39.591Z,36.22
2022-08-07T19:26:23.122Z,37.32
2022-08-07T19:28:56.654Z,36.61
2022-08-07T19:31:42.185Z,36.88
2022-08-07T19:33:58.108Z,36.25
2022-08-07T19:36:27.984Z,37.13
2022-08-07T19:38:58.315Z,36.94
2022-08-07T19:41:44.247Z,37.18
2022-08-07T19:44:21.988Z,37.13
2022-08-07T19:46:55.780Z,37.05
2022-08-07T19:49:58.135Z,36.74
2022-08-07T19:52:18.277Z,36.70
2022-08-07T19:54:55.616Z,38.04
2022-08-07T19:58:01.917Z,37.73
2022-08-07T20:00:29.795Z,37.27
2022-08-07T20:03:01.902Z,37.64
2022-08-07T20:05:59.606Z,37.35
2022-08-07T20:08:24.601Z,37.78
2022-08-07T20:11:34.251Z,37.67
2022-08-07T20:14:07.375Z,38.95
2022-08-07T20:16:48.116Z,39.81
2022-08-07T20:19:23.789Z,40.54
2022-08-07T20:21:56.958Z,40.84
2022-08-07T20:24:31.575Z,41.38
2022-08-07T20:27:03.492Z,41.50
2022-08-07T20:29:47.818Z,42.41
2022-08-07T20:32:39.858Z,42.04
2022-08-07T20:35:15.953Z,43.15
2022-08-07T20:37:55.772Z,42.56
2022-08-07T20:40:32.984Z,41.36
2022-08-07T20:43:02.790Z,41.30
2022-08-07T20:46:26.439Z,40.53
2022-08-07T20:48:28.667Z,40.58
2022-08-07T20:50:59.952Z,41.73
2022-08-07T20:54:03.196Z,42.22
2022-08-07T20:56:16.488Z,42.37
2022-08-07T20:58:50.186Z,42.60
2022-08-07T21:01:21.554Z,43.43
2022-08-07T21:04:19.652Z,44.11
2022-08-07T21:06:46.572Z,44.03
2022-08-07T21:09:24.631Z,44.13
2022-08-07T21:11:57.512Z,44.36
2022-08-07T21:14:33.459Z,44.25
2022-08-07T21:18:01.125Z,44.38
2022-08-07T21:20:04.630Z,43.70
2022-08-07T21:22:51.343Z,42.91
2022-08-07T21:25:39.254Z,43.49
2022-08-07T21:28:08.991Z,44.02
2022-08-07T21:30:41.850Z,44.14
2022-08-07T21:33:22.007Z,44.42
2022-08-07T21:36:32.329Z,45.37
2022-08-07T21:39:45.956Z,46.37
2022-08-07T21:42:46.491Z,46.39
2022-08-07T21:46:08.116Z,47.40
2022-08-07T21:48:27.633Z,47.86
2022-08-07T21:51:32.366Z,48.37
2022-08-07T21:54:19.955Z,48.08
2022-08-07T21:57:31.637Z,48.96
2022-08-07T22:00:23.025Z,48.55
2022-08-07T22:03:30.881Z,48.81
2022-08-07T22:06:30.840Z,49.99
2022-08-07T22:09:02.754Z,49.95
2022-08-07T22:12:05.361Z,50.31
2022-08-07T22:14:34.788Z,50.46
2022-08-07T22:17:04.820Z,50.83
2022-08-07T22:20:02.580Z,50.59
2022-08-07T22:22:44.729Z,51.32
2022-08-07T22:25:48.553Z,51.95
2022-08-07T22:28:42.604Z,52.17
2022-08-07T22:32:00.390Z,52.79
2022-08-07T22:34:31.788Z,52.83
2022-08-07T22:38:02.747Z,53.12
2022-08-07T22:40:35.640Z,53.94
2022-08-07T22:43:09.715Z,54.60
2022-08-07T22:46:40.662Z,54.64
2022-08-07T22:49:02.083Z,54.51
2022-08-07T22:51:41.881Z,55.15
2022-08-07T22:54:11.305Z,55.46
2022-08-07T22:57:00.663Z,55.54
2022-08-07T22:59:58.083Z,56.16
2022-08-07T23:02:47.468Z,56.11
2022-08-07T23:06:07.514Z,56.59
2022-08-07T23:08:51.648Z,56.45
2022-08-07T23:11:35.125Z,56.60
2022-08-07T23:14:30.438Z,56.51
2022-08-07T23:17:41.609Z,56.81
2022-08-07T23:20:51.848Z,57.48
2022-08-07T23:24:04.102Z,56.95
2022-08-07T23:26:50.216Z,57.80
2022-08-07T23:30:37.031Z,57.66
2022-08-07T23:34:33.727Z,58.99
2022-08-07T23:36:29.815Z,58.63
2022-08-07T23:39:12.414Z,57.87
2022-08-07T23:42:05.153Z,58.97
2022-08-07T23:44:56.319Z,59.04
2022-08-07T23:47:48.431Z,59.16
2022-08-07T23:50:40.887Z,59.84
2022-08-07T23:53:31.363Z,60.04
2022-08-07T23:56:28.146Z,60.40
2022-08-07T23:59:10.277Z,60.11
